Star City, AR

5:16 PM CST on February 01, 2015 (GMT -0600)
Grider | Change Station
CLOSE
Current Station
Airport
Location: Pine Bluff,
Elevation: 207 ft
Nearby Weather Stations
Active Advisory: Lake Wind Advisory

Elev 207 ft 34.17 °N, 91.93 °W | Updated 23 minutes ago

Overcast
Overcast
51 °F
Feels Like 51 °F
N
20
Wind Variable Wind from NW
Gusts 34 mph

Today
High -- | Low -- °F
--% Chance of Precip.
Yesterday
High -- | Low -- °F
Precip. -- in
7:04 AM 5:37 PM
Waxing Gibbous, 96% visible
Pressure 29.86 in
Visibility 10.0 miles
Clouds Few 3300 ft
Mostly Cloudy 9500 ft
Dew Point 40 °F
Humidity 66%
Rainfall 0.43 in
Snow Depth Not available.
UV 0 out of 12
Pollen 5.20 out of 12
Air Quality Not available.
Flu Activity Not available.
METAR KPBF 012253Z AUTO 31017G30KT 10SM FEW033 BKN095 11/04 A2986 RMK AO2 PK WND 31030/2247 SLP110 T01060044

More Conditions Fewer Conditions

Pressure 29.86 in
Visibility 10.0 miles
Clouds Few 3300 ft
Mostly Cloudy 9500 ft
Dew Point 40 °F
Humidity 66%
Rainfall 0.43 in
Snow Depth Not available.
UV 0 out of 12
Pollen 5.20 out of 12
Air Quality Not available.
Flu Activity Not available.
METAR KPBF 012253Z AUTO 31017G30KT 10SM FEW033 BKN095 11/04 A2986 RMK AO2 PK WND 31030/2247 SLP110 T01060044

More Conditions Fewer Conditions

10-Day Weather Forecast

Almanac

Astronomy

Feb. 01, 2015 Rise Set
Actual Time
Civil Twilight
Nautical Twilight
Astronomical Twilight
Moon
Length of Visible Light
Length of Day
Tomorrow will be .
, % of the Moon is Illuminated

Today's Extremes

State Highs State Lows

Community

WunderPhotos

Upload Photos

1,792,603 photos uploaded!

WunderBlogs® & News

Nearby

Air Quality

  Air Quality AQ Index Pollutant
Not available.

Snow Depth

Station Depth Elevation

Earthquake Activity

City Distance Mag. Time & Date
Minimum magnitude displayed is 2.5.

Coastal Water Temperatures

Place Temperature

Nearby Weather Stations